sensor_id;sensor_type;location;lat;lon;timestamp;pressure;altitude;pressure_sealevel;temperature;humidity
9893;BME280;4985;49.092;8.542;2023-08-12T00:01:32;99546.06;;;25.30;49.07
9893;BME280;4985;49.092;8.542;2023-08-12T00:03:58;99544.19;;;25.30;49.06
9893;BME280;4985;49.092;8.542;2023-08-12T00:06:25;99545.81;;;25.31;49.03
9893;BME280;4985;49.092;8.542;2023-08-12T00:08:51;99537.72;;;25.31;49.01
9893;BME280;4985;49.092;8.542;2023-08-12T00:11:19;99536.09;;;25.30;49.00
9893;BME280;4985;49.092;8.542;2023-08-12T00:13:46;99530.44;;;25.32;49.02
9893;BME280;4985;49.092;8.542;2023-08-12T00:16:12;99526.94;;;25.31;49.01
9893;BME280;4985;49.092;8.542;2023-08-12T00:18:39;99528.00;;;25.30;49.03
9893;BME280;4985;49.092;8.542;2023-08-12T00:21:07;99523.69;;;25.29;49.00
9893;BME280;4985;49.092;8.542;2023-08-12T00:23:37;99518.81;;;25.26;49.00
9893;BME280;4985;49.092;8.542;2023-08-12T00:26:04;99522.06;;;25.28;49.03
9893;BME280;4985;49.092;8.542;2023-08-12T00:28:33;99516.69;;;25.28;49.02
9893;BME280;4985;49.092;8.542;2023-08-12T00:30:59;99516.69;;;25.28;48.99
9893;BME280;4985;49.092;8.542;2023-08-12T00:33:26;99509.66;;;25.27;49.04
9893;BME280;4985;49.092;8.542;2023-08-12T00:35:52;99513.16;;;25.28;49.01
9893;BME280;4985;49.092;8.542;2023-08-12T00:38:19;99520.44;;;25.27;49.02
9893;BME280;4985;49.092;8.542;2023-08-12T00:40:46;99511.28;;;25.28;49.04
9893;BME280;4985;49.092;8.542;2023-08-12T00:43:13;99509.66;;;25.27;49.04
9893;BME280;4985;49.092;8.542;2023-08-12T00:45:41;99504.28;;;25.27;49.00
9893;BME280;4985;49.092;8.542;2023-08-12T00:48:08;99502.66;;;25.26;48.96
9893;BME280;4985;49.092;8.542;2023-08-12T00:50:36;99506.37;;;25.25;49.00
9893;BME280;4985;49.092;8.542;2023-08-12T00:53:03;99500.78;;;25.27;48.99
9893;BME280;4985;49.092;8.542;2023-08-12T00:55:31;99493.72;;;25.25;49.02
9893;BME280;4985;49.092;8.542;2023-08-12T00:57:58;99495.59;;;25.25;49.01
9893;BME280;4985;49.092;8.542;2023-08-12T01:00:25;99496.41;;;25.25;48.98
9893;BME280;4985;49.092;8.542;2023-08-12T01:02:53;99488.34;;;25.25;49.01
9893;BME280;4985;49.092;8.542;2023-08-12T01:05:22;99497.25;;;25.26;49.00
9893;BME280;4985;49.092;8.542;2023-08-12T01:07:48;99490.22;;;25.25;49.00
9893;BME280;4985;49.092;8.542;2023-08-12T01:10:16;99493.72;;;25.25;49.00
9893;BME280;4985;49.092;8.542;2023-08-12T01:12:48;99485.66;;;25.25;48.98
9893;BME280;4985;49.092;8.542;2023-08-12T01:15:20;99483.78;;;25.26;49.01
9893;BME280;4985;49.092;8.542;2023-08-12T01:17:49;99476.75;;;25.25;49.00
9893;BME280;4985;49.092;8.542;2023-08-12T01:20:20;99474.06;;;25.25;48.98
9893;BME280;4985;49.092;8.542;2023-08-12T01:25:30;99484.84;;;25.25;48.98
9893;BME280;4985;49.092;8.542;2023-08-12T01:27:56;99482.13;;;25.25;48.98
9893;BME280;4985;49.092;8.542;2023-08-12T01:30:23;99482.13;;;25.25;49.00
9893;BME280;4985;49.092;8.542;2023-08-12T01:32:54;99482.41;;;25.23;49.00
9893;BME280;4985;49.092;8.542;2023-08-12T01:35:26;99485.91;;;25.24;49.01
9893;BME280;4985;49.092;8.542;2023-08-12T01:37:57;99480.50;;;25.24;49.01
9893;BME280;4985;49.092;8.542;2023-08-12T01:40:27;99478.88;;;25.23;49.00
9893;BME280;4985;49.092;8.542;2023-08-12T01:42:55;99480.50;;;25.24;49.00
9893;BME280;4985;49.092;8.542;2023-08-12T01:45:22;99472.44;;;25.24;49.00
9893;BME280;4985;49.092;8.542;2023-08-12T01:47:49;99487.78;;;25.23;49.00
9893;BME280;4985;49.092;8.542;2023-08-12T01:50:16;99488.59;;;25.24;49.01
9893;BME280;4985;49.092;8.542;2023-08-12T01:52:44;99486.16;;;25.22;49.01
9893;BME280;4985;49.092;8.542;2023-08-12T01:55:10;99482.66;;;25.22;49.02
9893;BME280;4985;49.092;8.542;2023-08-12T01:57:37;99485.34;;;25.22;49.02
9893;BME280;4985;49.092;8.542;2023-08-12T02:00:06;99489.66;;;25.23;49.01
9893;BME280;4985;49.092;8.542;2023-08-12T02:02:33;99489.09;;;25.21;49.01
9893;BME280;4985;49.092;8.542;2023-08-12T02:05:00;99480.78;;;25.22;49.01
9893;BME280;4985;49.092;8.542;2023-08-12T02:07:26;99484.53;;;25.21;49.03
9893;BME280;4985;49.092;8.542;2023-08-12T02:09:53;99489.94;;;25.21;49.04
9893;BME280;4985;49.092;8.542;2023-08-12T02:12:19;99483.72;;;25.21;49.02
9893;BME280;4985;49.092;8.542;2023-08-12T02:14:46;99490.72;;;25.22;49.00
9893;BME280;4985;49.092;8.542;2023-08-12T02:17:14;99485.34;;;25.22;49.00
9893;BME280;4985;49.092;8.542;2023-08-12T02:19:41;99482.41;;;25.23;48.98
9893;BME280;4985;49.092;8.542;2023-08-12T02:22:07;99481.59;;;25.23;48.97
9893;BME280;4985;49.092;8.542;2023-08-12T02:24:35;99478.88;;;25.23;48.97
9893;BME280;4985;49.092;8.542;2023-08-12T02:27:02;99474.31;;;25.23;49.36
9893;BME280;4985;49.092;8.542;2023-08-12T02:29:29;99481.03;;;25.21;49.75
9893;BME280;4985;49.092;8.542;2023-08-12T02:31:56;99480.47;;;25.19;50.12
9893;BME280;4985;49.092;8.542;2023-08-12T02:34:24;99481.81;;;25.16;50.39
9893;BME280;4985;49.092;8.542;2023-08-12T02:36:50;99483.94;;;25.14;50.67
9893;BME280;4985;49.092;8.542;2023-08-12T02:39:17;99484.44;;;25.11;50.79
9893;BME280;4985;49.092;8.542;2023-08-12T02:41:43;99491.13;;;25.09;50.87
9893;BME280;4985;49.092;8.542;2023-08-12T02:44:10;99487.91;;;25.07;50.99
9893;BME280;4985;49.092;8.542;2023-08-12T02:46:36;99481.38;;;25.03;51.09
9893;BME280;4985;49.092;8.542;2023-08-12T02:49:03;99485.72;;;25.04;51.22
9893;BME280;4985;49.092;8.542;2023-08-12T02:51:31;99474.84;;;24.98;51.26
9893;BME280;4985;49.092;8.542;2023-08-12T02:53:58;99489.69;;;25.01;51.24
9893;BME280;4985;49.092;8.542;2023-08-12T02:56:24;99481.84;;;25.00;51.27
9893;BME280;4985;49.092;8.542;2023-08-12T02:58:51;99478.34;;;24.99;51.44
9893;BME280;4985;49.092;8.542;2023-08-12T03:01:18;99469.97;;;24.95;51.43
9893;BME280;4985;49.092;8.542;2023-08-12T03:03:44;99477.50;;;24.93;51.66
9893;BME280;4985;49.092;8.542;2023-08-12T03:06:11;99472.34;;;24.92;51.76
9893;BME280;4985;49.092;8.542;2023-08-12T03:08:39;99472.59;;;24.90;51.81
9893;BME280;4985;49.092;8.542;2023-08-12T03:11:05;99473.66;;;24.89;51.95
9893;BME280;4985;49.092;8.542;2023-08-12T03:13:32;99470.16;;;24.89;52.09
9893;BME280;4985;49.092;8.542;2023-08-12T03:15:58;99469.84;;;24.85;52.16
9893;BME280;4985;49.092;8.542;2023-08-12T03:18:25;99467.16;;;24.85;52.39
9893;BME280;4985;49.092;8.542;2023-08-12T03:20:52;99466.59;;;24.83;52.58
9893;BME280;4985;49.092;8.542;2023-08-12T03:23:18;99466.78;;;24.77;52.83
9893;BME280;4985;49.092;8.542;2023-08-12T03:25:48;99464.03;;;24.72;53.02
9893;BME280;4985;49.092;8.542;2023-08-12T03:28:16;99451.81;;;24.64;53.16
9893;BME280;4985;49.092;8.542;2023-08-12T03:30:50;99455.03;;;24.61;53.42
9893;BME280;4985;49.092;8.542;2023-08-12T03:33:16;99449.56;;;24.56;53.57
9893;BME280;4985;49.092;8.542;2023-08-12T03:35:44;99453.81;;;24.52;53.76
9893;BME280;4985;49.092;8.542;2023-08-12T03:38:11;99453.53;;;24.48;53.96
9893;BME280;4985;49.092;8.542;2023-08-12T03:40:38;99447.81;;;24.45;54.04
9893;BME280;4985;49.092;8.542;2023-08-12T03:43:06;99446.69;;;24.41;54.12
9893;BME280;4985;49.092;8.542;2023-08-12T03:45:32;99444.25;;;24.39;54.19
9893;BME280;4985;49.092;8.542;2023-08-12T03:47:59;99436.44;;;24.37;54.27
9893;BME280;4985;49.092;8.542;2023-08-12T03:50:26;99449.63;;;24.39;54.25
9893;BME280;4985;49.092;8.542;2023-08-12T03:52:52;99445.56;;;24.36;54.23
9893;BME280;4985;49.092;8.542;2023-08-12T03:55:19;99450.44;;;24.39;54.15
9893;BME280;4985;49.092;8.542;2023-08-12T03:57:45;99446.69;;;24.41;54.14
9893;BME280;4985;49.092;8.542;2023-08-12T04:00:13;99456.62;;;24.40;54.10
9893;BME280;4985;49.092;8.542;2023-08-12T04:02:40;99457.44;;;24.41;54.06
9893;BME280;4985;49.092;8.542;2023-08-12T04:05:07;99460.41;;;24.39;54.13
9893;BME280;4985;49.092;8.542;2023-08-12T04:07:35;99463.66;;;24.41;54.30
9893;BME280;4985;49.092;8.542;2023-08-12T04:10:02;99450.44;;;24.39;54.48
9893;BME280;4985;49.092;8.542;2023-08-12T04:12:29;99450.94;;;24.36;54.45
9893;BME280;4985;49.092;8.542;2023-08-12T04:14:56;99441.25;;;24.35;54.47
9893;BME280;4985;49.092;8.542;2023-08-12T04:17:24;99455.19;;;24.32;54.66
9893;BME280;4985;49.092;8.542;2023-08-12T04:19:50;99455.66;;;24.29;54.71
9893;BME280;4985;49.092;8.542;2023-08-12T04:22:17;99456.72;;;24.28;54.64
9893;BME280;4985;49.092;8.542;2023-08-12T04:24:43;99454.84;;;24.29;54.84
9893;BME280;4985;49.092;8.542;2023-08-12T04:27:10;99467.72;;;24.27;54.88
9893;BME280;4985;49.092;8.542;2023-08-12T04:29:36;99469.09;;;24.29;54.70
9893;BME280;4985;49.092;8.542;2023-08-12T04:32:03;99460.22;;;24.29;54.81
9893;BME280;4985;49.092;8.542;2023-08-12T04:34:31;99458.84;;;24.26;54.94
9893;BME280;4985;49.092;8.542;2023-08-12T04:36:58;99464.47;;;24.25;55.02
9893;BME280;4985;49.092;8.542;2023-08-12T04:39:25;99467.41;;;24.23;55.05
9893;BME280;4985;49.092;8.542;2023-08-12T04:41:51;99463.66;;;24.24;55.13
9893;BME280;4985;49.092;8.542;2023-08-12T04:44:18;99464.97;;;24.22;55.40
9893;BME280;4985;49.092;8.542;2023-08-12T04:46:44;99461.69;;;24.20;55.64
9893;BME280;4985;49.092;8.542;2023-08-12T04:49:11;99459.25;;;24.18;55.76
9893;BME280;4985;49.092;8.542;2023-08-12T04:51:39;99463.84;;;24.18;55.79
9893;BME280;4985;49.092;8.542;2023-08-12T04:54:06;99460.34;;;24.17;55.71
9893;BME280;4985;49.092;8.542;2023-08-12T04:56:33;99459.53;;;24.17;55.89
9893;BME280;4985;49.092;8.542;2023-08-12T04:58:59;99451.69;;;24.15;56.02
9893;BME280;4985;49.092;8.542;2023-08-12T05:01:26;99438.72;;;24.12;56.04
9893;BME280;4985;49.092;8.542;2023-08-12T05:03:52;99441.66;;;24.10;56.13
9893;BME280;4985;49.092;8.542;2023-08-12T05:06:19;99441.91;;;24.09;56.17
9893;BME280;4985;49.092;8.542;2023-08-12T05:08:47;99437.59;;;24.08;56.20
9893;BME280;4985;49.092;8.542;2023-08-12T05:11:13;99441.34;;;24.07;56.18
9893;BME280;4985;49.092;8.542;2023-08-12T05:13:40;99444.31;;;24.05;56.17
9893;BME280;4985;49.092;8.542;2023-08-12T05:16:07;99443.50;;;24.05;56.27
9893;BME280;4985;49.092;8.542;2023-08-12T05:18:33;99448.88;;;24.05;56.39
9893;BME280;4985;49.092;8.542;2023-08-12T05:21:00;99456.94;;;24.05;56.19
9893;BME280;4985;49.092;8.542;2023-08-12T05:23:26;99451.31;;;24.06;56.07
9893;BME280;4985;49.092;8.542;2023-08-12T05:25:54;99459.37;;;24.06;56.43
9893;BME280;4985;49.092;8.542;2023-08-12T05:28:21;99454.56;;;24.08;56.67
9893;BME280;4985;49.092;8.542;2023-08-12T05:30:48;99446.72;;;24.07;56.98
9893;BME280;4985;49.092;8.542;2023-08-12T05:33:14;99444.03;;;24.07;56.83
9893;BME280;4985;49.092;8.542;2023-08-12T05:35:41;99443.53;;;24.10;56.53
9893;BME280;4985;49.092;8.542;2023-08-12T05:38:07;99437.09;;;24.11;56.32
9893;BME280;4985;49.092;8.542;2023-08-12T05:40:34;99435.00;;;24.13;56.05
9893;BME280;4985;49.092;8.542;2023-08-12T05:43:02;99431.00;;;24.16;55.80
9893;BME280;4985;49.092;8.542;2023-08-12T05:45:28;99436.13;;;24.17;55.58
9893;BME280;4985;49.092;8.542;2023-08-12T05:47:55;99425.94;;;24.19;55.41
9893;BME280;4985;49.092;8.542;2023-08-12T05:50:22;99426.47;;;24.21;55.29
9893;BME280;4985;49.092;8.542;2023-08-12T05:52:48;99432.69;;;24.22;55.16
9893;BME280;4985;49.092;8.542;2023-08-12T05:55:15;99440.50;;;24.23;55.02
9893;BME280;4985;49.092;8.542;2023-08-12T05:57:42;99450.44;;;24.23;54.91
9893;BME280;4985;49.092;8.542;2023-08-12T06:00:11;99452.91;;;24.24;54.83
9893;BME280;4985;49.092;8.542;2023-08-12T06:02:37;99451.25;;;24.23;54.73
9893;BME280;4985;49.092;8.542;2023-08-12T06:05:05;99452.91;;;24.24;54.66
9893;BME280;4985;49.092;8.542;2023-08-12T06:07:32;99457.22;;;24.25;54.58
9893;BME280;4985;49.092;8.542;2023-08-12T06:09:58;99458.84;;;24.26;54.50
9893;BME280;4985;49.092;8.542;2023-08-12T06:12:25;99471.22;;;24.27;54.42
9893;BME280;4985;49.092;8.542;2023-08-12T06:14:52;99470.44;;;24.27;54.36
9893;BME280;4985;49.092;8.542;2023-08-12T06:17:20;99462.34;;;24.27;54.30
9893;BME280;4985;49.092;8.542;2023-08-12T06:19:46;99462.09;;;24.28;54.22
9893;BME280;4985;49.092;8.542;2023-08-12T06:22:13;99463.97;;;24.28;54.17
9893;BME280;4985;49.092;8.542;2023-08-12T06:24:39;99475.56;;;24.28;54.11
9893;BME280;4985;49.092;8.542;2023-08-12T06:27:06;99470.16;;;24.28;54.04
9893;BME280;4985;49.092;8.542;2023-08-12T06:29:32;99469.09;;;24.29;53.98
9893;BME280;4985;49.092;8.542;2023-08-12T06:31:59;99455.66;;;24.29;53.92
9893;BME280;4985;49.092;8.542;2023-08-12T06:34:27;99457.31;;;24.30;53.89
9893;BME280;4985;49.092;8.542;2023-08-12T06:36:53;99461.84;;;24.30;53.83
9893;BME280;4985;49.092;8.542;2023-08-12T06:39:20;99455.66;;;24.29;53.77
9893;BME280;4985;49.092;8.542;2023-08-12T06:41:46;99458.94;;;24.31;53.72
9893;BME280;4985;49.092;8.542;2023-08-12T06:44:13;99449.00;;;24.32;53.68
9893;BME280;4985;49.092;8.542;2023-08-12T06:46:40;99455.19;;;24.32;53.62
9893;BME280;4985;49.092;8.542;2023-08-12T06:49:07;99457.88;;;24.32;53.58
9893;BME280;4985;49.092;8.542;2023-08-12T06:51:35;99456.00;;;24.33;53.54
9893;BME280;4985;49.092;8.542;2023-08-12T06:54:01;99449.81;;;24.32;53.48
9893;BME280;4985;49.092;8.542;2023-08-12T06:56:28;99450.63;;;24.33;53.43
9893;BME280;4985;49.092;8.542;2023-08-12T06:58:54;99437.16;;;24.33;53.39
9893;BME280;4985;49.092;8.542;2023-08-12T07:01:21;99437.97;;;24.33;53.36
9893;BME280;4985;49.092;8.542;2023-08-12T07:03:47;99441.47;;;24.34;53.32
9893;BME280;4985;49.092;8.542;2023-08-12T07:06:14;99460.09;;;24.35;53.30
9893;BME280;4985;49.092;8.542;2023-08-12T07:08:42;99453.88;;;24.35;53.25
9893;BME280;4985;49.092;8.542;2023-08-12T07:11:09;99460.09;;;24.35;53.22
9893;BME280;4985;49.092;8.542;2023-08-12T07:13:35;99468.97;;;24.36;53.20
9893;BME280;4985;49.092;8.542;2023-08-12T07:16:02;99468.97;;;24.36;53.16
9893;BME280;4985;49.092;8.542;2023-08-12T07:18:29;99466.28;;;24.36;53.13
9893;BME280;4985;49.092;8.542;2023-08-12T07:20:56;99455.53;;;24.36;53.10
9893;BME280;4985;49.092;8.542;2023-08-12T07:23:23;99467.09;;;24.36;53.06
9893;BME280;4985;49.092;8.542;2023-08-12T07:25:51;99455.53;;;24.36;53.04
9893;BME280;4985;49.092;8.542;2023-08-12T07:28:18;99463.34;;;24.37;53.00
9893;BME280;4985;49.092;8.542;2023-08-12T07:30:44;99467.66;;;24.38;52.97
9893;BME280;4985;49.092;8.542;2023-08-12T07:33:11;99468.72;;;24.37;52.95
9893;BME280;4985;49.092;8.542;2023-08-12T07:35:38;99468.72;;;24.37;52.93
9893;BME280;4985;49.092;8.542;2023-08-12T07:38:04;99480.28;;;24.38;52.90
9893;BME280;4985;49.092;8.542;2023-08-12T07:40:31;99469.78;;;24.36;52.88
9893;BME280;4985;49.092;8.542;2023-08-12T07:42:59;99459.59;;;24.38;52.86
9893;BME280;4985;49.092;8.542;2023-08-12T07:45:26;99457.97;;;24.37;52.81
9893;BME280;4985;49.092;8.542;2023-08-12T07:47:52;99460.41;;;24.39;52.79
9893;BME280;4985;49.092;8.542;2023-08-12T07:50:19;99454.19;;;24.38;52.76
9893;BME280;4985;49.092;8.542;2023-08-12T07:52:46;99462.03;;;24.40;52.75
9893;BME280;4985;49.092;8.542;2023-08-12T07:55:12;99462.03;;;24.40;52.72
9893;BME280;4985;49.092;8.542;2023-08-12T07:57:39;99460.94;;;24.41;52.69
9893;BME280;4985;49.092;8.542;2023-08-12T08:00:08;99463.66;;;24.41;52.66
9893;BME280;4985;49.092;8.542;2023-08-12T08:02:35;99457.19;;;24.42;52.65
9893;BME280;4985;49.092;8.542;2023-08-12T08:05:02;99459.06;;;24.42;52.62
9893;BME280;4985;49.092;8.542;2023-08-12T08:07:29;99451.81;;;24.42;52.60
9893;BME280;4985;49.092;8.542;2023-08-12T08:09:57;99449.94;;;24.43;52.56
9893;BME280;4985;49.092;8.542;2023-08-12T08:12:24;99448.88;;;24.44;52.54
9893;BME280;4985;49.092;8.542;2023-08-12T08:14:50;99442.94;;;24.42;52.52
9893;BME280;4985;49.092;8.542;2023-08-12T08:17:18;99443.50;;;24.44;52.51
9893;BME280;4985;49.092;8.542;2023-08-12T08:19:45;99440.00;;;24.43;52.48
9893;BME280;4985;49.092;8.542;2023-08-12T08:22:11;99439.72;;;24.45;52.47
9893;BME280;4985;49.092;8.542;2023-08-12T08:24:38;99428.66;;;24.41;52.46
9893;BME280;4985;49.092;8.542;2023-08-12T08:27:05;99436.22;;;24.44;52.43
9893;BME280;4985;49.092;8.542;2023-08-12T08:29:32;99438.91;;;24.44;52.41
9893;BME280;4985;49.092;8.542;2023-08-12T08:31:59;99427.34;;;24.44;52.40
9893;BME280;4985;49.092;8.542;2023-08-12T08:34:27;99427.09;;;24.45;52.38
9893;BME280;4985;49.092;8.542;2023-08-12T08:36:53;99421.16;;;24.43;52.36
9893;BME280;4985;49.092;8.542;2023-08-12T08:39:20;99444.06;;;24.46;52.36
9893;BME280;4985;49.092;8.542;2023-08-12T08:41:48;99442.44;;;24.45;52.35
9893;BME280;4985;49.092;8.542;2023-08-12T08:44:15;99451.56;;;24.44;52.35
9893;BME280;4985;49.092;8.542;2023-08-12T08:46:43;99449.44;;;24.46;52.34
9893;BME280;4985;49.092;8.542;2023-08-12T08:49:11;99453.78;;;24.47;52.32
9893;BME280;4985;49.092;8.542;2023-08-12T08:51:40;99447.31;;;24.48;52.30
9893;BME280;4985;49.092;8.542;2023-08-12T08:54:07;99441.34;;;24.46;52.29
9893;BME280;4985;49.092;8.542;2023-08-12T08:56:34;99441.94;;;24.48;52.28
9893;BME280;4985;49.092;8.542;2023-08-12T08:59:01;99441.94;;;24.48;52.29
9893;BME280;4985;49.092;8.542;2023-08-12T09:01:28;99427.69;;;24.47;52.28
9893;BME280;4985;49.092;8.542;2023-08-12T09:03:55;99438.44;;;24.47;52.29
9893;BME280;4985;49.092;8.542;2023-08-12T09:06:24;99431.19;;;24.48;52.27
9893;BME280;4985;49.092;8.542;2023-08-12T09:08:54;99443.56;;;24.49;52.27
9893;BME280;4985;49.092;8.542;2023-08-12T09:11:21;99443.00;;;24.47;52.25
9893;BME280;4985;49.092;8.542;2023-08-12T09:13:48;99441.69;;;24.49;52.25
9893;BME280;4985;49.092;8.542;2023-08-12T09:16:15;99441.94;;;24.48;52.21
9893;BME280;4985;49.092;8.542;2023-08-12T09:18:42;99444.13;;;24.51;52.19
9893;BME280;4985;49.092;8.542;2023-08-12T09:21:09;99447.63;;;24.51;52.18
9893;BME280;4985;49.092;8.542;2023-08-12T09:23:37;99444.94;;;24.51;52.17
9893;BME280;4985;49.092;8.542;2023-08-12T09:26:12;99445.75;;;24.52;52.16
9893;BME280;4985;49.092;8.542;2023-08-12T09:28:40;99433.94;;;24.53;52.14
9893;BME280;4985;49.092;8.542;2023-08-12T09:31:07;99431.22;;;24.53;52.13
9893;BME280;4985;49.092;8.542;2023-08-12T09:33:38;99440.12;;;24.53;52.12
9893;BME280;4985;49.092;8.542;2023-08-12T09:36:05;99435.53;;;24.54;52.11
9893;BME280;4985;49.092;8.542;2023-08-12T09:38:32;99430.16;;;24.54;52.10
9893;BME280;4985;49.092;8.542;2023-08-12T09:40:59;99418.59;;;24.53;52.08
9893;BME280;4985;49.092;8.542;2023-08-12T09:43:28;99406.75;;;24.54;52.07
9893;BME280;4985;49.092;8.542;2023-08-12T09:45:56;99414.56;;;24.56;52.08
9893;BME280;4985;49.092;8.542;2023-08-12T09:48:24;99409.19;;;24.56;52.08
9893;BME280;4985;49.092;8.542;2023-08-12T09:50:52;99411.63;;;24.57;52.08
9893;BME280;4985;49.092;8.542;2023-08-12T09:53:19;99415.16;;;24.58;52.08
9893;BME280;4985;49.092;8.542;2023-08-12T09:55:47;99421.34;;;24.58;52.06
9893;BME280;4985;49.092;8.542;2023-08-12T09:58:17;99427.56;;;24.59;52.05
9893;BME280;4985;49.092;8.542;2023-08-12T10:00:45;99432.13;;;24.58;52.07
9893;BME280;4985;49.092;8.542;2023-08-12T10:03:13;99427.56;;;24.59;52.08
9893;BME280;4985;49.092;8.542;2023-08-12T10:05:40;99419.47;;;24.59;52.08
9893;BME280;4985;49.092;8.542;2023-08-12T10:08:08;99406.03;;;24.59;52.10
9893;BME280;4985;49.092;8.542;2023-08-12T10:10:35;99412.22;;;24.59;52.10
9893;BME280;4985;49.092;8.542;2023-08-12T10:13:03;99402.25;;;24.60;52.11
9893;BME280;4985;49.092;8.542;2023-08-12T10:15:32;99413.84;;;24.60;52.11
9893;BME280;4985;49.092;8.542;2023-08-12T10:18:01;99402.25;;;24.60;52.13
9893;BME280;4985;49.092;8.542;2023-08-12T10:20:29;99405.75;;;24.60;52.12
9893;BME280;4985;49.092;8.542;2023-08-12T10:22:59;99410.88;;;24.62;52.13
9893;BME280;4985;49.092;8.542;2023-08-12T10:25:31;99408.19;;;24.62;52.11
9893;BME280;4985;49.092;8.542;2023-08-12T10:27:58;99405.25;;;24.63;52.11
9893;BME280;4985;49.092;8.542;2023-08-12T10:30:28;99405.50;;;24.62;52.16
9893;BME280;4985;49.092;8.542;2023-08-12T10:32:55;99408.75;;;24.64;52.16
9893;BME280;4985;49.092;8.542;2023-08-12T10:35:23;99420.06;;;24.66;52.15
9893;BME280;4985;49.092;8.542;2023-08-12T10:37:50;99426.53;;;24.65;52.16
9893;BME280;4985;49.092;8.542;2023-08-12T10:40:21;99428.16;;;24.66;52.18
9893;BME280;4985;49.092;8.542;2023-08-12T10:42:50;99415.75;;;24.65;52.16
9893;BME280;4985;49.092;8.542;2023-08-12T10:45:17;99420.06;;;24.66;52.17
9893;BME280;4985;49.092;8.542;2023-08-12T10:47:48;99419.81;;;24.67;52.16
9893;BME280;4985;49.092;8.542;2023-08-12T10:50:18;99424.41;;;24.67;52.17
9893;BME280;4985;49.092;8.542;2023-08-12T10:52:47;99426.28;;;24.66;52.19
9893;BME280;4985;49.092;8.542;2023-08-12T10:55:21;99420.06;;;24.66;52.20
9893;BME280;4985;49.092;8.542;2023-08-12T10:57:49;99408.50;;;24.65;52.23
9893;BME280;4985;49.092;8.542;2023-08-12T11:00:17;99406.37;;;24.67;52.23
9893;BME280;4985;49.092;8.542;2023-08-12T11:02:44;99417.94;;;24.68;52.25
9893;BME280;4985;49.092;8.542;2023-08-12T11:05:12;99423.91;;;24.70;52.24
9893;BME280;4985;49.092;8.542;2023-08-12T11:07:41;99438.44;;;24.69;52.26
9893;BME280;4985;49.092;8.542;2023-08-12T11:10:15;99440.06;;;24.70;52.27
9893;BME280;4985;49.092;8.542;2023-08-12T11:12:47;99433.06;;;24.69;52.29
9893;BME280;4985;49.092;8.542;2023-08-12T11:15:14;99430.91;;;24.71;52.31
9893;BME280;4985;49.092;8.542;2023-08-12T11:17:41;99431.72;;;24.72;52.32
9893;BME280;4985;49.092;8.542;2023-08-12T11:20:09;99427.16;;;24.72;52.37
9893;BME280;4985;49.092;8.542;2023-08-12T11:22:37;99424.47;;;24.72;52.38
9893;BME280;4985;49.092;8.542;2023-08-12T11:25:05;99414.78;;;24.71;52.41
9893;BME280;4985;49.092;8.542;2023-08-12T11:27:42;99405.38;;;24.74;52.42
9893;BME280;4985;49.092;8.542;2023-08-12T11:30:11;99395.66;;;24.73;52.41
9893;BME280;4985;49.092;8.542;2023-08-12T11:32:40;99402.41;;;24.75;52.43
9893;BME280;4985;49.092;8.542;2023-08-12T11:35:08;99396.22;;;24.75;52.47
9893;BME280;4985;49.092;8.542;2023-08-12T11:37:36;99404.31;;;24.75;52.48
9893;BME280;4985;49.092;8.542;2023-08-12T11:40:04;99409.94;;;24.73;52.48
9893;BME280;4985;49.092;8.542;2023-08-12T11:42:31;99418.56;;;24.75;52.52
9893;BME280;4985;49.092;8.542;2023-08-12T11:44:58;99399.72;;;24.75;52.54
9893;BME280;4985;49.092;8.542;2023-08-12T11:47:25;99414.81;;;24.76;52.56
9893;BME280;4985;49.092;8.542;2023-08-12T11:49:52;99429.09;;;24.77;52.57
9893;BME280;4985;49.092;8.542;2023-08-12T11:52:19;99419.13;;;24.77;52.58
9893;BME280;4985;49.092;8.542;2023-08-12T11:54:48;99409.16;;;24.78;52.59
9893;BME280;4985;49.092;8.542;2023-08-12T11:57:15;99417.00;;;24.79;52.60
9893;BME280;4985;49.092;8.542;2023-08-12T11:59:42;99419.69;;;24.79;52.61
9893;BME280;4985;49.092;8.542;2023-08-12T12:02:11;99426.69;;;24.80;52.61
9893;BME280;4985;49.092;8.542;2023-08-12T12:04:38;99429.97;;;24.82;52.60
9893;BME280;4985;49.092;8.542;2023-08-12T12:07:17;99433.47;;;24.83;52.63
9893;BME280;4985;49.092;8.542;2023-08-12T12:09:43;99439.66;;;24.83;52.62
9893;BME280;4985;49.092;8.542;2023-08-12T12:12:10;99441.28;;;24.84;52.63
9893;BME280;4985;49.092;8.542;2023-08-12T12:14:37;99441.28;;;24.84;52.63
9893;BME280;4985;49.092;8.542;2023-08-12T12:17:07;99443.44;;;24.82;52.64
9893;BME280;4985;49.092;8.542;2023-08-12T12:19:35;99455.31;;;24.86;52.64
9893;BME280;4985;49.092;8.542;2023-08-12T12:22:03;99447.22;;;24.86;52.64
9893;BME280;4985;49.092;8.542;2023-08-12T12:24:30;99438.09;;;24.87;52.63
9893;BME280;4985;49.092;8.542;2023-08-12T12:26:57;99443.47;;;24.87;52.64
9893;BME280;4985;49.092;8.542;2023-08-12T12:29:24;99447.53;;;24.90;52.63
9893;BME280;4985;49.092;8.542;2023-08-12T12:31:50;99441.91;;;24.91;52.61
9893;BME280;4985;49.092;8.542;2023-08-12T12:34:17;99438.16;;;24.92;52.60
9893;BME280;4985;49.092;8.542;2023-08-12T12:36:45;99440.84;;;24.92;52.60
9893;BME280;4985;49.092;8.542;2023-08-12T12:39:11;99443.53;;;24.92;52.63
9893;BME280;4985;49.092;8.542;2023-08-12T12:41:38;99439.78;;;24.93;52.64
9893;BME280;4985;49.092;8.542;2023-08-12T12:44:05;99442.47;;;24.93;52.63
9893;BME280;4985;49.092;8.542;2023-08-12T12:46:31;99434.41;;;24.93;52.65
9893;BME280;4985;49.092;8.542;2023-08-12T12:48:58;99436.84;;;24.95;52.64
9893;BME280;4985;49.092;8.542;2023-08-12T12:51:25;99441.97;;;24.96;52.64
9893;BME280;4985;49.092;8.542;2023-08-12T12:53:52;99439.28;;;24.96;52.66
9893;BME280;4985;49.092;8.542;2023-08-12T12:56:19;99442.53;;;24.98;52.64
9893;BME280;4985;49.092;8.542;2023-08-12T12:58:46;99453.28;;;24.98;52.62
9893;BME280;4985;49.092;8.542;2023-08-12T13:01:12;99454.09;;;24.99;52.64
9893;BME280;4985;49.092;8.542;2023-08-12T13:03:39;99447.91;;;24.98;52.68
9893;BME280;4985;49.092;8.542;2023-08-12T13:06:05;99444.16;;;25.00;52.67
9893;BME280;4985;49.092;8.542;2023-08-12T13:08:32;99442.25;;;25.00;52.67
9893;BME280;4985;49.092;8.542;2023-08-12T13:11:00;99442.03;;;25.02;52.70
9893;BME280;4985;49.092;8.542;2023-08-12T13:13:27;99440.97;;;25.03;52.72
9893;BME280;4985;49.092;8.542;2023-08-12T13:15:53;99449.03;;;25.03;52.72
9893;BME280;4985;49.092;8.542;2023-08-12T13:18:20;99454.44;;;25.03;52.71
9893;BME280;4985;49.092;8.542;2023-08-12T13:20:47;99456.09;;;25.04;52.74
9893;BME280;4985;49.092;8.542;2023-08-12T13:23:14;99451.50;;;25.04;52.74
9893;BME280;4985;49.092;8.542;2023-08-12T13:25:41;99455.00;;;25.05;52.77